Time,TemperatureF,DewpointF,PressureIn,WindDirection,WindDirectionDegrees,WindSpeedMPH,WindSpeedGustMPH,Humidity,HourlyPrecipIn,Conditions,Clouds,dailyrainin,SolarRadiationWatts/m^2,SoftwareType,DateUTC
2013-07-10 00:00:00,71.4,60.7,30.08,South,179,0.0,0.0,69,0.00,,---,0.00,0.00,VWS V14.01,2013-07-09 22:00:00,
2013-07-10 00:10:00,71.0,60.3,30.08,South,179,0.0,0.0,69,0.00,,---,0.00,0.00,VWS V14.01,2013-07-09 22:10:00,
2013-07-10 00:15:00,70.7,60.5,30.08,South,179,0.0,0.0,70,0.00,,---,0.00,0.00,VWS V14.01,2013-07-09 22:15:00,
2013-07-10 00:20:00,70.5,60.3,30.08,South,179,0.0,0.0,70,0.00,,---,0.00,0.00,VWS V14.01,2013-07-09 22:20:00,
2013-07-10 00:25:00,70.3,60.5,30.08,South,179,0.0,0.0,71,0.00,,---,0.00,0.00,VWS V14.01,2013-07-09 22:25:00,
2013-07-10 00:30:00,70.1,60.3,30.08,South,179,0.0,0.0,71,0.00,,---,0.00,0.00,VWS V14.01,2013-07-09 22:30:00,
2013-07-10 00:40:00,69.9,60.1,30.08,South,179,0.0,0.0,71,0.00,,---,0.00,0.00,VWS V14.01,2013-07-09 22:40:00,
2013-07-10 00:50:00,69.6,59.8,30.08,South,179,0.0,0.0,71,0.00,,---,0.00,0.00,VWS V14.01,2013-07-09 22:50:00,
2013-07-10 00:55:00,69.5,60.1,30.08,South,179,0.0,0.0,72,0.00,,---,0.00,0.00,VWS V14.01,2013-07-09 22:55:00,
2013-07-10 01:00:00,69.5,60.1,30.08,South,179,0.0,0.0,72,0.00,,---,0.00,0.00,VWS V14.01,2013-07-09 23:00:00,
2013-07-10 01:10:00,69.1,60.1,30.08,South,179,0.0,0.0,73,0.00,,---,0.00,0.00,VWS V14.01,2013-07-09 23:10:00,
2013-07-10 01:15:00,68.9,59.9,30.08,South,179,0.0,0.0,73,0.00,,---,0.00,0.00,VWS V14.01,2013-07-09 23:15:00,
2013-07-10 01:20:00,68.7,60.1,30.08,South,179,0.0,0.0,74,0.00,,---,0.00,0.00,VWS V14.01,2013-07-09 23:20:00,
2013-07-10 01:30:00,68.2,59.6,30.08,South,179,0.0,0.0,74,0.00,,---,0.00,0.00,VWS V14.01,2013-07-09 23:30:00,
2013-07-10 01:35:00,68.0,59.8,30.08,South,179,0.0,0.0,75,0.00,,---,0.00,0.00,VWS V14.01,2013-07-09 23:35:00,
2013-07-10 01:40:00,67.9,59.7,30.08,South,179,0.0,0.0,75,0.00,,---,0.00,0.00,VWS V14.01,2013-07-09 23:40:00,
2013-07-10 01:50:00,67.5,59.7,30.07,South,179,0.0,0.0,76,0.00,,---,0.00,0.00,VWS V14.01,2013-07-09 23:50:00,
2013-07-10 01:55:00,67.2,59.4,30.07,South,179,0.0,0.0,76,0.00,,---,0.00,0.00,VWS V14.01,2013-07-09 23:55:00,
2013-07-10 02:00:00,67.0,59.2,30.07,South,179,0.0,0.0,76,0.00,,---,0.00,0.00,VWS V14.01,2013-07-10 00:00:00,
2013-07-10 02:10:00,66.7,59.3,30.07,South,179,0.0,0.0,77,0.00,,---,0.00,0.00,VWS V14.01,2013-07-10 00:10:00,
2013-07-10 02:15:00,66.5,59.1,30.07,South,179,0.0,0.0,77,0.00,,---,0.00,0.00,VWS V14.01,2013-07-10 00:15:00,
2013-07-10 02:25:00,66.3,59.2,30.07,South,179,0.0,0.0,78,0.00,,---,0.00,0.00,VWS V14.01,2013-07-10 00:25:00,
2013-07-10 02:30:00,66.2,59.2,30.07,South,179,0.0,0.0,78,0.00,,---,0.00,0.00,VWS V14.01,2013-07-10 00:30:00,
2013-07-10 02:40:00,66.0,59.0,30.07,South,179,0.0,0.0,78,0.00,,---,0.00,0.00,VWS V14.01,2013-07-10 00:40:00,
2013-07-10 02:50:00,65.8,59.1,30.07,South,179,0.0,0.0,79,0.00,,---,0.00,0.00,VWS V14.01,2013-07-10 00:50:00,
2013-07-10 02:55:00,65.6,58.9,30.07,South,179,0.0,0.0,79,0.00,,---,0.00,0.00,VWS V14.01,2013-07-10 00:55:00,
2013-07-10 03:00:00,65.4,58.7,30.06,South,179,0.0,0.0,79,0.00,,---,0.00,0.00,VWS V14.01,2013-07-10 01:00:00,
2013-07-10 03:05:00,65.2,58.9,30.06,South,179,0.0,0.0,80,0.00,,---,0.00,0.00,VWS V14.01,2013-07-10 01:05:00,
2013-07-10 03:15:00,64.8,58.5,30.06,South,179,0.0,0.0,80,0.00,,---,0.00,0.00,VWS V14.01,2013-07-10 01:15:00,
2013-07-10 03:20:00,64.6,58.7,30.06,South,179,0.0,0.0,81,0.00,,---,0.00,0.00,VWS V14.01,2013-07-10 01:20:00,
2013-07-10 03:25:00,64.3,58.3,30.06,South,179,0.0,0.0,81,0.00,,---,0.00,0.00,VWS V14.01,2013-07-10 01:25:00,
2013-07-10 03:30:00,64.2,58.6,30.05,South,179,0.0,1.0,82,0.00,,---,0.00,0.00,VWS V14.01,2013-07-10 01:30:00,
2013-07-10 03:40:00,63.8,58.2,30.05,South,179,0.0,0.0,82,0.00,,---,0.00,0.00,VWS V14.01,2013-07-10 01:40:00,
2013-07-10 03:45:00,63.6,58.3,30.05,South,179,0.0,0.0,83,0.00,,---,0.00,0.00,VWS V14.01,2013-07-10 01:45:00,
2013-07-10 03:50:00,63.5,58.2,30.05,South,179,0.0,0.0,83,0.00,,---,0.00,0.00,VWS V14.01,2013-07-10 01:50:00,
2013-07-10 03:55:00,63.4,58.2,30.05,South,179,0.0,0.0,83,0.00,,---,0.00,0.00,VWS V14.01,2013-07-10 01:55:00,
2013-07-10 04:00:00,63.3,58.1,30.05,South,179,0.0,0.0,83,0.00,,---,0.00,0.00,VWS V14.01,2013-07-10 02:00:00,
2013-07-10 04:10:00,63.1,58.2,30.05,South,179,0.0,0.0,84,0.00,,---,0.00,0.00,VWS V14.01,2013-07-10 02:10:00,
2013-07-10 04:20:00,63.0,58.1,30.04,South,179,0.0,0.0,84,0.00,,---,0.00,0.00,VWS V14.01,2013-07-10 02:20:00,
2013-07-10 04:30:00,62.9,58.0,30.04,South,179,0.0,0.0,84,0.00,,---,0.00,0.00,VWS V14.01,2013-07-10 02:30:00,
2013-07-10 04:35:00,62.7,57.8,30.04,South,179,0.0,0.0,84,0.00,,---,0.00,0.00,VWS V14.01,2013-07-10 02:35:00,
2013-07-10 04:45:00,62.5,57.9,30.04,South,179,2.0,2.0,85,0.00,,---,0.00,0.00,VWS V14.01,2013-07-10 02:45:00,
2013-07-10 04:50:00,62.3,57.7,30.04,South,179,0.0,0.0,85,0.00,,---,0.00,0.00,VWS V14.01,2013-07-10 02:50:00,
2013-07-10 05:00:00,62.0,57.5,30.04,South,179,0.0,0.0,85,0.00,,---,0.00,0.00,VWS V14.01,2013-07-10 03:00:00,
2013-07-10 05:05:00,61.9,57.7,30.04,South,179,0.0,0.0,86,0.00,,---,0.00,5.00,VWS V14.01,2013-07-10 03:05:00,
2013-07-10 05:15:00,61.6,57.4,30.04,South,179,0.0,0.0,86,0.00,,---,0.00,7.00,VWS V14.01,2013-07-10 03:15:00,
2013-07-10 05:20:00,61.5,57.3,30.04,South,179,0.0,0.0,86,0.00,,---,0.00,11.00,VWS V14.01,2013-07-10 03:20:00,
2013-07-10 05:25:00,61.4,57.5,30.04,South,179,0.0,0.0,87,0.00,,---,0.00,12.00,VWS V14.01,2013-07-10 03:25:00,
2013-07-10 05:35:00,61.3,57.4,30.04,South,179,0.0,0.0,87,0.00,,---,0.00,18.00,VWS V14.01,2013-07-10 03:35:00,
2013-07-10 05:40:00,61.3,57.4,30.04,South,179,0.0,0.0,87,0.00,,---,0.00,21.00,VWS V14.01,2013-07-10 03:40:00,
2013-07-10 05:45:00,61.2,57.3,30.04,South,179,0.0,0.0,87,0.00,,---,0.00,25.00,VWS V14.01,2013-07-10 03:45:00,
2013-07-10 05:50:00,61.2,57.3,30.04,South,180,0.0,1.0,87,0.00,,---,0.00,26.00,VWS V14.01,2013-07-10 03:50:00,
2013-07-10 05:55:00,61.2,57.3,30.04,South,181,0.0,0.0,87,0.00,,---,0.00,32.00,VWS V14.01,2013-07-10 03:55:00,
2013-07-10 06:00:00,61.2,57.3,30.04,South,181,0.0,0.0,87,0.00,,---,0.00,58.00,VWS V14.01,2013-07-10 04:00:00,
2013-07-10 06:05:00,61.2,57.3,30.04,South,180,0.0,3.0,87,0.00,,---,0.00,46.00,VWS V14.01,2013-07-10 04:05:00,
2013-07-10 06:15:00,61.2,57.3,30.04,SSW,197,0.0,0.0,87,0.00,,---,0.00,60.00,VWS V14.01,2013-07-10 04:15:00,
2013-07-10 06:20:00,61.3,57.7,30.04,SSW,197,0.0,0.0,88,0.00,,---,0.00,60.00,VWS V14.01,2013-07-10 04:20:00,
2013-07-10 06:25:00,61.3,57.4,30.04,SSW,198,3.0,3.0,87,0.00,,---,0.00,51.00,VWS V14.01,2013-07-10 04:25:00,
2013-07-10 06:35:00,61.3,57.4,30.04,SSW,200,3.0,4.0,87,0.00,,---,0.00,62.00,VWS V14.01,2013-07-10 04:35:00,
2013-07-10 06:40:00,61.3,57.4,30.04,SSW,202,0.0,4.0,87,0.00,,---,0.00,74.00,VWS V14.01,2013-07-10 04:40:00,
2013-07-10 06:45:00,61.3,57.4,30.04,SSW,202,0.0,3.0,87,0.00,,---,0.00,148.00,VWS V14.01,2013-07-10 04:45:00,
2013-07-10 06:50:00,61.4,57.5,30.04,SSW,202,0.0,1.0,87,0.00,,---,0.00,162.00,VWS V14.01,2013-07-10 04:50:00,
2013-07-10 07:00:00,61.7,57.8,30.04,SSW,207,0.0,2.0,87,0.00,,---,0.00,88.00,VWS V14.01,2013-07-10 05:00:00,
2013-07-10 07:10:00,62.1,58.2,30.04,SSW,207,0.0,0.0,87,0.00,,---,0.00,213.00,VWS V14.01,2013-07-10 05:10:00,
2013-07-10 07:20:00,62.5,58.3,30.04,SSW,207,0.0,1.0,86,0.00,,---,0.00,248.00,VWS V14.01,2013-07-10 05:20:00,
2013-07-10 07:25:00,62.8,58.2,30.04,SSW,208,0.0,0.0,85,0.00,,---,0.00,260.00,VWS V14.01,2013-07-10 05:25:00,
2013-07-10 07:30:00,63.1,58.5,30.04,SSW,208,0.0,1.0,85,0.00,,---,0.00,269.00,VWS V14.01,2013-07-10 05:30:00,
2013-07-10 07:40:00,63.8,58.9,30.04,SSW,209,1.0,1.0,84,0.00,,---,0.00,294.00,VWS V14.01,2013-07-10 05:40:00,
2013-07-10 07:50:00,64.5,58.9,30.04,SSW,209,0.0,1.0,82,0.00,,---,0.00,315.00,VWS V14.01,2013-07-10 05:50:00,
2013-07-10 07:55:00,64.8,59.2,30.04,SSW,209,0.0,0.0,82,0.00,,---,0.00,332.00,VWS V14.01,2013-07-10 05:55:00,
2013-07-10 08:00:00,65.3,59.0,30.03,WNW,298,0.0,1.0,80,0.00,,---,0.00,348.00,VWS V14.01,2013-07-10 06:00:00,
2013-07-10 08:10:00,66.5,59.1,30.03,WNW,298,0.0,4.0,77,0.00,,---,0.00,376.00,VWS V14.01,2013-07-10 06:10:00,
2013-07-10 08:15:00,67.3,58.7,30.03,WNW,299,0.0,3.0,74,0.00,,---,0.00,397.00,VWS V14.01,2013-07-10 06:15:00,
2013-07-10 08:20:00,67.9,58.9,30.03,NW,304,0.0,1.0,73,0.00,,---,0.00,413.00,VWS V14.01,2013-07-10 06:20:00,
2013-07-10 08:30:00,68.8,59.0,30.03,SW,236,0.0,1.0,71,0.00,,---,0.00,443.00,VWS V14.01,2013-07-10 06:30:00,
2013-07-10 08:35:00,69.2,59.0,30.03,West,263,0.0,0.0,70,0.00,,---,0.00,466.00,VWS V14.01,2013-07-10 06:35:00,
2013-07-10 08:45:00,70.4,59.3,30.03,NNE,22,0.0,0.0,68,0.00,,---,0.00,496.00,VWS V14.01,2013-07-10 06:45:00,
2013-07-10 08:50:00,70.9,59.4,30.03,NNW,336,0.0,5.0,67,0.00,,---,0.00,457.00,VWS V14.01,2013-07-10 06:50:00,
2013-07-10 08:55:00,71.2,59.7,30.03,North,355,1.0,1.0,67,0.00,,---,0.00,496.00,VWS V14.01,2013-07-10 06:55:00,
2013-07-10 09:00:00,71.5,59.1,30.03,NE,43,1.0,5.0,65,0.00,,---,0.00,513.00,VWS V14.01,2013-07-10 07:00:00,
2013-07-10 09:10:00,72.3,59.0,30.03,North,10,1.0,4.0,63,0.00,,---,0.00,552.00,VWS V14.01,2013-07-10 07:10:00,
2013-07-10 09:15:00,72.6,58.8,30.03,NNE,13,1.0,4.0,62,0.00,,---,0.00,563.00,VWS V14.01,2013-07-10 07:15:00,
2013-07-10 09:20:00,72.7,58.5,30.03,North,360,0.0,0.0,61,0.00,,---,0.00,571.00,VWS V14.01,2013-07-10 07:20:00,
2013-07-10 09:25:00,72.9,58.7,30.03,NW,310,0.0,4.0,61,0.00,,---,0.00,591.00,VWS V14.01,2013-07-10 07:25:00,
2013-07-10 09:35:00,73.1,57.5,30.02,NW,318,3.0,7.0,58,0.00,,---,0.00,621.00,VWS V14.01,2013-07-10 07:35:00,
2013-07-10 09:40:00,73.1,57.5,30.02,North,350,0.0,5.0,58,0.00,,---,0.00,621.00,VWS V14.01,2013-07-10 07:40:00,
2013-07-10 09:50:00,73.7,58.0,30.02,North,9,0.0,2.0,58,0.00,,---,0.00,691.00,VWS V14.01,2013-07-10 07:50:00,
2013-07-10 09:55:00,73.9,57.7,30.02,North,360,6.0,6.0,57,0.00,,---,0.00,645.00,VWS V14.01,2013-07-10 07:55:00,
2013-07-10 10:00:00,74.2,58.0,30.02,NNW,346,4.0,6.0,57,0.00,,---,0.00,663.00,VWS V14.01,2013-07-10 08:00:00,
2013-07-10 10:10:00,74.7,58.0,30.02,North,9,5.0,9.0,56,0.00,,---,0.00,689.00,VWS V14.01,2013-07-10 08:10:00,
2013-07-10 10:15:00,74.9,57.7,30.02,NNE,13,4.0,6.0,55,0.00,,---,0.00,701.00,VWS V14.01,2013-07-10 08:15:00,
2013-07-10 10:20:00,75.1,57.3,30.02,ENE,61,0.0,6.0,54,0.00,,---,0.00,710.00,VWS V14.01,2013-07-10 08:20:00,
2013-07-10 10:30:00,75.1,58.3,30.02,West,280,0.0,7.0,56,0.00,,---,0.00,735.00,VWS V14.01,2013-07-10 08:30:00,
2013-07-10 10:35:00,75.1,58.3,30.02,NNW,336,9.0,10.0,56,0.00,,---,0.00,761.00,VWS V14.01,2013-07-10 08:35:00,
2013-07-10 10:40:00,74.8,58.6,30.02,NW,308,8.0,11.0,57,0.00,,---,0.00,752.00,VWS V14.01,2013-07-10 08:40:00,
2013-07-10 10:45:00,74.9,59.1,30.01,North,355,0.0,6.0,58,0.00,,---,0.00,772.00,VWS V14.01,2013-07-10 08:45:00,
2013-07-10 10:50:00,75.4,59.1,30.01,NW,311,3.0,7.0,57,0.00,,---,0.00,763.00,VWS V14.01,2013-07-10 08:50:00,
2013-07-10 10:55:00,75.8,59.0,30.01,WNW,284,6.0,10.0,56,0.00,,---,0.00,759.00,VWS V14.01,2013-07-10 08:55:00,
2013-07-10 11:00:00,75.8,59.0,30.01,North,350,3.0,9.0,56,0.00,,---,0.00,768.00,VWS V14.01,2013-07-10 09:00:00,
2013-07-10 11:10:00,76.4,58.0,30.01,NNW,331,8.0,12.0,53,0.00,,---,0.00,793.00,VWS V14.01,2013-07-10 09:10:00,
2013-07-10 11:15:00,76.3,57.9,30.01,NE,34,3.0,8.0,53,0.00,,---,0.00,791.00,VWS V14.01,2013-07-10 09:15:00,
2013-07-10 11:20:00,76.7,58.8,30.01,NNE,19,3.0,7.0,54,0.00,,---,0.00,812.00,VWS V14.01,2013-07-10 09:20:00,
2013-07-10 11:30:00,76.0,58.2,30.01,NW,314,0.0,5.0,54,0.00,,---,0.00,830.00,VWS V14.01,2013-07-10 09:30:00,
2013-07-10 11:35:00,77.5,60.1,30.01,NNE,19,0.0,5.0,55,0.00,,---,0.00,840.00,VWS V14.01,2013-07-10 09:35:00,
2013-07-10 11:40:00,77.9,59.9,30.01,North,350,7.0,7.0,54,0.00,,---,0.00,900.00,VWS V14.01,2013-07-10 09:40:00,
2013-07-10 11:50:00,77.7,59.8,30.01,NNE,19,7.0,12.0,54,0.00,,---,0.00,905.00,VWS V14.01,2013-07-10 09:50:00,
2013-07-10 12:00:00,77.1,59.2,30.00,NNE,22,1.0,7.0,54,0.00,,---,0.00,209.00,VWS V14.01,2013-07-10 10:00:00,
2013-07-10 12:10:00,76.0,58.7,30.00,NW,323,13.0,13.0,55,0.00,,---,0.00,925.00,VWS V14.01,2013-07-10 10:10:00,
2013-07-10 12:20:00,77.0,58.6,30.00,NW,326,7.0,11.0,53,0.00,,---,0.00,963.00,VWS V14.01,2013-07-10 10:20:00,
2013-07-10 12:25:00,76.8,57.9,30.00,NNW,345,5.0,11.0,52,0.00,,---,0.00,336.00,VWS V14.01,2013-07-10 10:25:00,
2013-07-10 12:30:00,76.2,57.3,29.99,North,360,4.0,6.0,52,0.00,,---,0.00,891.00,VWS V14.01,2013-07-10 10:30:00,
2013-07-10 12:40:00,78.9,58.1,29.99,NNW,331,6.0,6.0,49,0.00,,---,0.00,865.00,VWS V14.01,2013-07-10 10:40:00,
2013-07-10 12:50:00,77.6,58.1,29.99,NW,313,9.0,15.0,51,0.00,,---,0.00,926.00,VWS V14.01,2013-07-10 10:50:00,
2013-07-10 12:55:00,78.4,57.7,29.99,NE,34,8.0,9.0,49,0.00,,---,0.00,907.00,VWS V14.01,2013-07-10 10:55:00,
2013-07-10 13:00:00,77.8,57.7,29.99,North,355,5.0,13.0,50,0.00,,---,0.00,891.00,VWS V14.01,2013-07-10 11:00:00,
2013-07-10 13:10:00,78.7,58.0,29.99,NNW,334,7.0,13.0,49,0.00,,---,0.00,863.00,VWS V14.01,2013-07-10 11:10:00,
2013-07-10 13:20:00,77.9,57.2,29.99,NNE,15,3.0,6.0,49,0.00,,---,0.00,824.00,VWS V14.01,2013-07-10 11:20:00,
2013-07-10 13:25:00,79.1,58.3,29.99,NNE,31,0.0,7.0,49,0.00,,---,0.00,875.00,VWS V14.01,2013-07-10 11:25:00,
2013-07-10 13:30:00,78.5,57.8,29.98,NNE,21,5.0,14.0,49,0.00,,---,0.00,879.00,VWS V14.01,2013-07-10 11:30:00,
2013-07-10 13:35:00,78.0,57.3,29.98,North,355,5.0,11.0,49,0.00,,---,0.00,898.00,VWS V14.01,2013-07-10 11:35:00,
2013-07-10 13:40:00,78.3,58.2,29.98,NW,326,0.0,0.0,50,0.00,,---,0.00,882.00,VWS V14.01,2013-07-10 11:40:00,
2013-07-10 13:45:00,78.7,58.0,29.98,NW,313,2.0,12.0,49,0.00,,---,0.00,904.00,VWS V14.01,2013-07-10 11:45:00,
2013-07-10 13:50:00,79.1,57.8,29.98,NNE,17,1.0,6.0,48,0.00,,---,0.00,867.00,VWS V14.01,2013-07-10 11:50:00,
2013-07-10 13:55:00,79.2,57.8,29.98,North,355,9.0,11.0,48,0.00,,---,0.00,874.00,VWS V14.01,2013-07-10 11:55:00,
2013-07-10 14:00:00,78.0,57.3,29.97,NW,306,0.0,9.0,49,0.00,,---,0.00,868.00,VWS V14.01,2013-07-10 12:00:00,
2013-07-10 14:10:00,79.1,58.3,29.97,NNW,334,10.0,10.0,49,0.00,,---,0.00,877.00,VWS V14.01,2013-07-10 12:10:00,
2013-07-10 14:15:00,79.1,58.3,29.97,NNW,331,6.0,9.0,49,0.00,,---,0.00,879.00,VWS V14.01,2013-07-10 12:15:00,
2013-07-10 14:20:00,79.1,57.8,29.97,NNW,348,0.0,5.0,48,0.00,,---,0.00,865.00,VWS V14.01,2013-07-10 12:20:00,
2013-07-10 14:25:00,79.0,57.7,29.97,West,275,2.0,5.0,48,0.00,,---,0.00,853.00,VWS V14.01,2013-07-10 12:25:00,
2013-07-10 14:35:00,79.1,57.2,29.96,NW,314,9.0,11.0,47,0.00,,---,0.00,445.00,VWS V14.01,2013-07-10 12:35:00,
2013-07-10 14:40:00,79.5,57.5,29.96,NW,319,3.0,7.0,47,0.00,,---,0.00,851.00,VWS V14.01,2013-07-10 12:40:00,
2013-07-10 14:45:00,79.1,56.6,29.96,NNW,346,5.0,13.0,46,0.00,,---,0.00,854.00,VWS V14.01,2013-07-10 12:45:00,
2013-07-10 14:50:00,78.7,56.8,29.96,NNW,345,2.0,9.0,47,0.00,,---,0.00,837.00,VWS V14.01,2013-07-10 12:50:00,
2013-07-10 15:00:00,78.9,58.1,29.96,NNW,338,4.0,14.0,49,0.00,,---,0.00,772.00,VWS V14.01,2013-07-10 13:00:00,
2013-07-10 15:10:00,79.9,57.3,29.96,NE,34,3.0,7.0,46,0.00,,---,0.00,773.00,VWS V14.01,2013-07-10 13:10:00,
2013-07-10 15:20:00,79.1,57.8,29.95,NNE,19,6.0,14.0,48,0.00,,---,0.00,186.00,VWS V14.01,2013-07-10 13:20:00,
2013-07-10 15:25:00,78.3,57.6,29.95,NNW,327,7.0,9.0,49,0.00,,---,0.00,733.00,VWS V14.01,2013-07-10 13:25:00,
2013-07-10 15:30:00,80.4,58.3,29.95,NNE,30,12.0,12.0,47,0.00,,---,0.00,728.00,VWS V14.01,2013-07-10 13:30:00,
2013-07-10 15:40:00,79.6,57.6,29.95,WSW,240,5.0,9.0,47,0.00,,---,0.00,738.00,VWS V14.01,2013-07-10 13:40:00,
2013-07-10 15:45:00,79.7,57.1,29.95,NNE,17,5.0,14.0,46,0.00,,---,0.00,506.00,VWS V14.01,2013-07-10 13:45:00,
2013-07-10 15:50:00,79.3,57.3,29.95,NNE,15,1.0,10.0,47,0.00,,---,0.00,721.00,VWS V14.01,2013-07-10 13:50:00,
2013-07-10 15:55:00,80.5,57.2,29.95,NW,326,4.0,10.0,45,0.00,,---,0.00,694.00,VWS V14.01,2013-07-10 13:55:00,
2013-07-10 16:00:00,80.3,57.7,29.94,NNW,329,6.0,12.0,46,0.00,,---,0.00,701.00,VWS V14.01,2013-07-10 14:00:00,
2013-07-10 16:10:00,80.1,57.5,29.94,NNE,16,8.0,8.0,46,0.00,,---,0.00,698.00,VWS V14.01,2013-07-10 14:10:00,
2013-07-10 16:15:00,80.8,57.5,29.93,WNW,286,0.0,3.0,45,0.00,,---,0.00,657.00,VWS V14.01,2013-07-10 14:15:00,
2013-07-10 16:25:00,79.8,57.2,29.93,NW,322,10.0,10.0,46,0.00,,---,0.00,642.00,VWS V14.01,2013-07-10 14:25:00,
2013-07-10 16:30:00,81.0,57.1,29.93,NNW,336,9.0,10.0,44,0.00,,---,0.00,255.00,VWS V14.01,2013-07-10 14:30:00,
2013-07-10 16:35:00,79.4,56.8,29.93,North,9,11.0,14.0,46,0.00,,---,0.00,624.00,VWS V14.01,2013-07-10 14:35:00,
2013-07-10 16:40:00,81.1,58.4,29.93,North,360,12.0,12.0,46,0.00,,---,0.00,603.00,VWS V14.01,2013-07-10 14:40:00,
2013-07-10 16:45:00,81.2,57.9,29.93,NNE,20,5.0,10.0,45,0.00,,---,0.00,578.00,VWS V14.01,2013-07-10 14:45:00,
2013-07-10 16:50:00,80.2,57.0,29.93,NW,319,0.0,6.0,45,0.00,,---,0.00,568.00,VWS V14.01,2013-07-10 14:50:00,
2013-07-10 17:00:00,80.1,56.9,29.93,NNW,338,6.0,8.0,45,0.00,,---,0.00,534.00,VWS V14.01,2013-07-10 15:00:00,
2013-07-10 17:10:00,80.6,57.9,29.93,NNW,338,11.0,12.0,46,0.00,,---,0.00,515.00,VWS V14.01,2013-07-10 15:10:00,
2013-07-10 17:15:00,79.2,57.2,29.92,NW,322,7.0,14.0,47,0.00,,---,0.00,492.00,VWS V14.01,2013-07-10 15:15:00,
2013-07-10 17:20:00,79.9,57.9,29.92,North,355,7.0,9.0,47,0.00,,---,0.00,497.00,VWS V14.01,2013-07-10 15:20:00,
2013-07-10 17:25:00,79.5,57.5,29.92,NE,38,1.0,4.0,47,0.00,,---,0.00,519.00,VWS V14.01,2013-07-10 15:25:00,
2013-07-10 17:30:00,80.7,58.0,29.92,NNW,342,0.0,4.0,46,0.00,,---,0.00,424.00,VWS V14.01,2013-07-10 15:30:00,
2013-07-10 17:40:00,79.9,57.9,29.92,North,360,8.0,11.0,47,0.00,,---,0.00,241.00,VWS V14.01,2013-07-10 15:40:00,
2013-07-10 17:45:00,79.5,58.1,29.91,NE,36,6.0,6.0,48,0.00,,---,0.00,459.00,VWS V14.01,2013-07-10 15:45:00,
2013-07-10 17:55:00,79.8,58.4,29.91,NNW,345,11.0,17.0,48,0.00,,---,0.00,476.00,VWS V14.01,2013-07-10 15:55:00,
2013-07-10 18:00:00,79.9,58.5,29.91,North,5,10.0,16.0,48,0.00,,---,0.00,450.00,VWS V14.01,2013-07-10 16:00:00,
2013-07-10 18:10:00,79.6,59.9,29.91,NE,42,4.0,13.0,51,0.00,,---,0.00,401.00,VWS V14.01,2013-07-10 16:10:00,
2013-07-10 18:20:00,79.3,60.2,29.91,North,5,0.0,13.0,52,0.00,,---,0.00,343.00,VWS V14.01,2013-07-10 16:20:00,
2013-07-10 18:25:00,78.7,59.6,29.91,North,360,7.0,11.0,52,0.00,,---,0.00,325.00,VWS V14.01,2013-07-10 16:25:00,
2013-07-10 18:35:00,78.2,61.2,29.91,NNE,26,11.0,16.0,56,0.00,,---,0.00,272.00,VWS V14.01,2013-07-10 16:35:00,
2013-07-10 18:40:00,77.8,61.4,29.91,NNW,337,6.0,15.0,57,0.00,,---,0.00,165.00,VWS V14.01,2013-07-10 16:40:00,
2013-07-10 18:50:00,76.6,61.2,29.91,NNE,21,7.0,16.0,59,0.00,,---,0.00,148.00,VWS V14.01,2013-07-10 16:50:00,
2013-07-10 19:00:00,75.7,60.4,29.91,NNE,17,11.0,17.0,59,0.00,,---,0.00,199.00,VWS V14.01,2013-07-10 17:00:00,
2013-07-10 19:10:00,75.3,60.0,29.91,NNE,19,11.0,12.0,59,0.00,,---,0.00,88.00,VWS V14.01,2013-07-10 17:10:00,
2013-07-10 19:15:00,75.1,59.8,29.91,North,355,10.0,11.0,59,0.00,,---,0.00,98.00,VWS V14.01,2013-07-10 17:15:00,
2013-07-10 19:20:00,74.6,59.8,29.91,NNW,347,10.0,10.0,60,0.00,,---,0.00,163.00,VWS V14.01,2013-07-10 17:20:00,
2013-07-10 19:30:00,74.9,59.1,29.92,NNE,12,12.0,12.0,58,0.00,,---,0.00,151.00,VWS V14.01,2013-07-10 17:30:00,
2013-07-10 19:35:00,74.8,59.0,29.92,NE,34,0.0,11.0,58,0.00,,---,0.00,130.00,VWS V14.01,2013-07-10 17:35:00,
2013-07-10 19:40:00,74.8,59.0,29.92,NE,51,3.0,7.0,58,0.00,,---,0.00,93.00,VWS V14.01,2013-07-10 17:40:00,
2013-07-10 19:45:00,74.9,58.2,29.92,NNE,24,9.0,13.0,56,0.00,,---,0.00,83.00,VWS V14.01,2013-07-10 17:45:00,
2013-07-10 19:50:00,74.7,57.5,29.92,North,5,6.0,13.0,55,0.00,,---,0.00,65.00,VWS V14.01,2013-07-10 17:50:00,
2013-07-10 20:00:00,74.2,57.5,29.92,NNE,32,0.0,8.0,56,0.00,,---,0.00,37.00,VWS V14.01,2013-07-10 18:00:00,
2013-07-10 20:05:00,74.0,57.3,29.92,NNE,30,10.0,15.0,56,0.00,,---,0.00,39.00,VWS V14.01,2013-07-10 18:05:00,
2013-07-10 20:10:00,73.6,57.4,29.92,NNE,21,4.0,10.0,57,0.00,,---,0.00,37.00,VWS V14.01,2013-07-10 18:10:00,
2013-07-10 20:15:00,73.5,57.8,29.92,North,360,4.0,12.0,58,0.00,,---,0.00,40.00,VWS V14.01,2013-07-10 18:15:00,
2013-07-10 20:20:00,73.2,57.5,29.92,North,355,0.0,7.0,58,0.00,,---,0.00,37.00,VWS V14.01,2013-07-10 18:20:00,
2013-07-10 20:25:00,73.1,57.9,29.92,NNE,16,5.0,5.0,59,0.00,,---,0.00,32.00,VWS V14.01,2013-07-10 18:25:00,
2013-07-10 20:30:00,73.0,57.8,29.93,NNE,21,5.0,9.0,59,0.00,,---,0.00,33.00,VWS V14.01,2013-07-10 18:30:00,
2013-07-10 20:40:00,72.7,58.0,29.93,NE,37,3.0,9.0,60,0.00,,---,0.00,21.00,VWS V14.01,2013-07-10 18:40:00,
2013-07-10 20:50:00,72.4,57.8,29.93,North,360,2.0,9.0,60,0.00,,---,0.00,14.00,VWS V14.01,2013-07-10 18:50:00,
2013-07-10 20:55:00,72.2,57.6,29.93,NNE,19,7.0,11.0,60,0.00,,---,0.00,12.00,VWS V14.01,2013-07-10 18:55:00,
2013-07-10 21:00:00,72.1,57.5,29.93,NNE,19,3.0,7.0,60,0.00,,---,0.00,9.00,VWS V14.01,2013-07-10 19:00:00,
2013-07-10 21:10:00,71.8,57.2,29.93,North,11,5.0,7.0,60,0.00,,---,0.00,0.00,VWS V14.01,2013-07-10 19:10:00,
2013-07-10 21:15:00,71.8,57.2,29.93,NE,36,9.0,11.0,60,0.00,,---,0.00,0.00,VWS V14.01,2013-07-10 19:15:00,
2013-07-10 21:25:00,71.5,57.8,29.93,North,9,9.0,14.0,62,0.00,,---,0.00,0.00,VWS V14.01,2013-07-10 19:25:00,
2013-07-10 21:30:00,71.3,57.6,29.94,NNE,17,1.0,11.0,62,0.00,,---,0.00,0.00,VWS V14.01,2013-07-10 19:30:00,
2013-07-10 21:40:00,70.9,58.1,29.94,NNE,13,5.0,10.0,64,0.00,,---,0.00,0.00,VWS V14.01,2013-07-10 19:40:00,
2013-07-10 21:45:00,70.7,58.4,29.94,NE,41,9.0,13.0,65,0.00,,---,0.00,0.00,VWS V14.01,2013-07-10 19:45:00,
2013-07-10 21:50:00,70.3,58.4,29.94,North,11,6.0,15.0,66,0.00,,---,0.00,0.00,VWS V14.01,2013-07-10 19:50:00,
2013-07-10 22:00:00,69.5,58.5,29.95,North,5,10.0,16.0,68,0.00,,---,0.00,0.00,VWS V14.01,2013-07-10 20:00:00,
2013-07-10 22:10:00,68.7,58.1,29.95,North,360,3.0,9.0,69,0.00,,---,0.00,,VWS V14.01,2013-07-10 20:10:00,
2013-07-10 22:15:00,68.6,58.4,29.96,NE,37,4.0,15.0,70,0.00,,---,0.00,0.00,VWS V14.01,2013-07-10 20:15:00,
2013-07-10 22:25:00,67.9,57.8,29.96,NNE,28,4.0,10.0,70,0.00,,---,0.00,0.00,VWS V14.01,2013-07-10 20:25:00,
2013-07-10 22:35:00,67.5,57.8,29.96,NNE,28,13.0,13.0,71,0.00,,---,0.00,0.00,VWS V14.01,2013-07-10 20:35:00,
2013-07-10 22:40:00,67.3,57.2,29.96,North,355,9.0,18.0,70,0.00,,---,0.00,0.00,VWS V14.01,2013-07-10 20:40:00,
2013-07-10 22:45:00,67.1,56.2,29.97,North,355,2.0,16.0,68,0.00,,---,0.00,0.00,VWS V14.01,2013-07-10 20:45:00,
2013-07-10 22:50:00,67.0,55.7,29.97,North,360,5.0,14.0,67,0.00,,---,0.00,0.00,VWS V14.01,2013-07-10 20:50:00,
2013-07-10 22:55:00,66.9,55.2,29.97,North,5,5.0,10.0,66,0.00,,---,0.00,0.00,VWS V14.01,2013-07-10 20:55:00,
2013-07-10 23:00:00,66.7,55.0,29.98,North,355,11.0,11.0,66,0.00,,---,0.00,0.00,VWS V14.01,2013-07-10 21:00:00,
2013-07-10 23:10:00,66.3,55.4,29.98,NNW,336,7.0,7.0,68,0.00,,---,0.00,0.00,VWS V14.01,2013-07-10 21:10:00,
2013-07-10 23:20:00,66.1,55.7,29.98,NNW,345,9.0,12.0,69,0.00,,---,0.00,0.00,VWS V14.01,2013-07-10 21:20:00,
2013-07-10 23:25:00,65.9,55.5,29.98,North,10,11.0,12.0,69,0.00,,---,0.00,0.00,VWS V14.01,2013-07-10 21:25:00,
2013-07-10 23:35:00,65.6,55.2,29.98,NNW,340,8.0,10.0,69,0.00,,---,0.00,0.00,VWS V14.01,2013-07-10 21:35:00,
2013-07-10 23:40:00,65.5,55.1,29.98,NNW,348,4.0,7.0,69,0.00,,---,0.00,0.00,VWS V14.01,2013-07-10 21:40:00,
2013-07-10 23:45:00,65.5,55.1,29.98,NW,319,6.0,7.0,69,0.00,,---,0.00,0.00,VWS V14.01,2013-07-10 21:45:00,
2013-07-10 23:50:00,65.4,55.0,29.98,North,360,3.0,5.0,69,0.00,,---,0.00,0.00,VWS V14.01,2013-07-10 21:50:00,